sensor_id;sensor_type;location;lat;lon;timestamp;P1;durP1;ratioP1;P2;durP2;ratioP2
44810;SDS011;30526;52.184;4.476;2022-11-12T00:00:55;28.25;;;16.52;;
44810;SDS011;30526;52.184;4.476;2022-11-12T00:03:23;31.48;;;16.17;;
44810;SDS011;30526;52.184;4.476;2022-11-12T00:05:49;31.88;;;16.60;;
44810;SDS011;30526;52.184;4.476;2022-11-12T00:08:15;27.95;;;15.25;;
44810;SDS011;30526;52.184;4.476;2022-11-12T00:10:42;29.07;;;16.47;;
44810;SDS011;30526;52.184;4.476;2022-11-12T00:13:08;28.33;;;17.40;;
44810;SDS011;30526;52.184;4.476;2022-11-12T00:15:35;31.05;;;17.27;;
44810;SDS011;30526;52.184;4.476;2022-11-12T00:18:01;28.48;;;17.75;;
44810;SDS011;30526;52.184;4.476;2022-11-12T00:20:27;29.52;;;18.05;;
44810;SDS011;30526;52.184;4.476;2022-11-12T00:22:53;35.85;;;19.45;;
44810;SDS011;30526;52.184;4.476;2022-11-12T00:25:19;32.33;;;17.48;;
44810;SDS011;30526;52.184;4.476;2022-11-12T00:27:45;33.22;;;18.70;;
44810;SDS011;30526;52.184;4.476;2022-11-12T00:30:11;33.92;;;19.48;;
44810;SDS011;30526;52.184;4.476;2022-11-12T00:32:37;33.33;;;19.45;;
44810;SDS011;30526;52.184;4.476;2022-11-12T00:35:04;31.30;;;18.80;;
44810;SDS011;30526;52.184;4.476;2022-11-12T00:37:30;33.73;;;19.80;;
44810;SDS011;30526;52.184;4.476;2022-11-12T00:39:56;35.47;;;20.50;;
44810;SDS011;30526;52.184;4.476;2022-11-12T00:42:22;32.88;;;20.00;;
44810;SDS011;30526;52.184;4.476;2022-11-12T00:44:48;34.65;;;19.70;;
44810;SDS011;30526;52.184;4.476;2022-11-12T00:47:14;38.85;;;20.65;;
44810;SDS011;30526;52.184;4.476;2022-11-12T00:49:40;30.40;;;16.38;;
44810;SDS011;30526;52.184;4.476;2022-11-12T00:52:06;32.38;;;19.92;;
44810;SDS011;30526;52.184;4.476;2022-11-12T00:54:32;36.33;;;21.05;;
44810;SDS011;30526;52.184;4.476;2022-11-12T00:56:58;36.10;;;19.98;;
44810;SDS011;30526;52.184;4.476;2022-11-12T00:59:24;38.35;;;21.75;;
44810;SDS011;30526;52.184;4.476;2022-11-12T01:01:50;37.63;;;21.73;;
44810;SDS011;30526;52.184;4.476;2022-11-12T01:04:16;37.53;;;22.08;;
44810;SDS011;30526;52.184;4.476;2022-11-12T01:06:42;36.88;;;22.27;;
44810;SDS011;30526;52.184;4.476;2022-11-12T01:09:09;39.38;;;23.05;;
44810;SDS011;30526;52.184;4.476;2022-11-12T01:11:35;40.55;;;21.88;;
44810;SDS011;30526;52.184;4.476;2022-11-12T01:14:03;39.70;;;22.40;;
44810;SDS011;30526;52.184;4.476;2022-11-12T01:16:31;39.67;;;23.17;;
44810;SDS011;30526;52.184;4.476;2022-11-12T01:18:58;37.55;;;21.58;;
44810;SDS011;30526;52.184;4.476;2022-11-12T01:21:25;26.27;;;15.52;;
44810;SDS011;30526;52.184;4.476;2022-11-12T01:23:51;28.05;;;14.70;;
44810;SDS011;30526;52.184;4.476;2022-11-12T01:26:18;39.22;;;22.27;;
44810;SDS011;30526;52.184;4.476;2022-11-12T01:33:36;38.55;;;21.67;;
44810;SDS011;30526;52.184;4.476;2022-11-12T01:36:02;43.42;;;24.40;;
44810;SDS011;30526;52.184;4.476;2022-11-12T01:38:32;38.35;;;23.27;;
44810;SDS011;30526;52.184;4.476;2022-11-12T01:40:58;43.80;;;23.95;;
44810;SDS011;30526;52.184;4.476;2022-11-12T01:43:24;39.38;;;23.30;;
44810;SDS011;30526;52.184;4.476;2022-11-12T01:45:50;42.42;;;23.63;;
44810;SDS011;30526;52.184;4.476;2022-11-12T01:48:25;30.42;;;18.00;;
44810;SDS011;30526;52.184;4.476;2022-11-12T01:50:51;40.75;;;22.45;;
44810;SDS011;30526;52.184;4.476;2022-11-12T01:53:18;46.17;;;24.93;;
44810;SDS011;30526;52.184;4.476;2022-11-12T01:55:44;32.30;;;19.23;;
44810;SDS011;30526;52.184;4.476;2022-11-12T01:58:11;47.30;;;25.05;;
44810;SDS011;30526;52.184;4.476;2022-11-12T02:03:05;47.08;;;25.02;;
44810;SDS011;30526;52.184;4.476;2022-11-12T02:05:34;47.53;;;26.75;;
44810;SDS011;30526;52.184;4.476;2022-11-12T02:08:00;34.85;;;20.13;;
44810;SDS011;30526;52.184;4.476;2022-11-12T02:10:27;54.50;;;28.67;;
44810;SDS011;30526;52.184;4.476;2022-11-12T02:12:54;47.83;;;26.98;;
44810;SDS011;30526;52.184;4.476;2022-11-12T02:15:39;45.00;;;27.05;;
44810;SDS011;30526;52.184;4.476;2022-11-12T02:18:05;43.08;;;26.40;;
44810;SDS011;30526;52.184;4.476;2022-11-12T02:20:32;47.85;;;26.23;;
44810;SDS011;30526;52.184;4.476;2022-11-12T02:22:58;30.17;;;18.93;;
44810;SDS011;30526;52.184;4.476;2022-11-12T02:25:24;45.70;;;25.10;;
44810;SDS011;30526;52.184;4.476;2022-11-12T02:27:51;48.83;;;27.73;;
44810;SDS011;30526;52.184;4.476;2022-11-12T02:30:22;46.45;;;27.48;;
44810;SDS011;30526;52.184;4.476;2022-11-12T02:32:55;35.83;;;23.38;;
44810;SDS011;30526;52.184;4.476;2022-11-12T02:35:21;51.42;;;28.00;;
44810;SDS011;30526;52.184;4.476;2022-11-12T02:37:48;51.67;;;29.40;;
44810;SDS011;30526;52.184;4.476;2022-11-12T02:40:14;49.85;;;28.73;;
44810;SDS011;30526;52.184;4.476;2022-11-12T02:42:40;53.28;;;29.92;;
44810;SDS011;30526;52.184;4.476;2022-11-12T02:45:06;53.38;;;31.00;;
44810;SDS011;30526;52.184;4.476;2022-11-12T02:47:32;53.47;;;30.33;;
44810;SDS011;30526;52.184;4.476;2022-11-12T02:49:58;55.00;;;29.52;;
44810;SDS011;30526;52.184;4.476;2022-11-12T02:52:24;44.40;;;25.90;;
44810;SDS011;30526;52.184;4.476;2022-11-12T02:54:50;53.42;;;30.10;;
44810;SDS011;30526;52.184;4.476;2022-11-12T02:57:16;46.55;;;27.20;;
44810;SDS011;30526;52.184;4.476;2022-11-12T02:59:42;50.22;;;26.60;;
44810;SDS011;30526;52.184;4.476;2022-11-12T03:02:08;46.03;;;26.38;;
44810;SDS011;30526;52.184;4.476;2022-11-12T03:04:34;53.60;;;28.92;;
44810;SDS011;30526;52.184;4.476;2022-11-12T03:07:00;46.30;;;27.45;;
44810;SDS011;30526;52.184;4.476;2022-11-12T03:09:26;50.00;;;26.85;;
44810;SDS011;30526;52.184;4.476;2022-11-12T03:11:52;43.72;;;26.63;;
44810;SDS011;30526;52.184;4.476;2022-11-12T03:14:18;44.60;;;25.63;;
44810;SDS011;30526;52.184;4.476;2022-11-12T03:16:44;49.83;;;26.60;;
44810;SDS011;30526;52.184;4.476;2022-11-12T03:19:11;49.42;;;27.58;;
44810;SDS011;30526;52.184;4.476;2022-11-12T03:21:37;43.38;;;26.23;;
44810;SDS011;30526;52.184;4.476;2022-11-12T03:24:03;45.33;;;27.08;;
44810;SDS011;30526;52.184;4.476;2022-11-12T03:26:29;48.90;;;27.38;;
44810;SDS011;30526;52.184;4.476;2022-11-12T03:28:55;46.38;;;26.80;;
44810;SDS011;30526;52.184;4.476;2022-11-12T03:31:21;46.22;;;25.45;;
44810;SDS011;30526;52.184;4.476;2022-11-12T03:33:47;51.33;;;27.63;;
44810;SDS011;30526;52.184;4.476;2022-11-12T03:36:13;51.10;;;27.83;;
44810;SDS011;30526;52.184;4.476;2022-11-12T03:38:39;54.88;;;29.75;;
44810;SDS011;30526;52.184;4.476;2022-11-12T03:41:05;53.22;;;30.02;;
44810;SDS011;30526;52.184;4.476;2022-11-12T03:43:31;54.05;;;28.67;;
44810;SDS011;30526;52.184;4.476;2022-11-12T03:45:57;54.40;;;29.35;;
44810;SDS011;30526;52.184;4.476;2022-11-12T03:48:23;55.38;;;29.20;;
44810;SDS011;30526;52.184;4.476;2022-11-12T03:50:49;56.28;;;29.90;;
44810;SDS011;30526;52.184;4.476;2022-11-12T03:53:15;61.35;;;31.63;;
44810;SDS011;30526;52.184;4.476;2022-11-12T03:55:41;61.42;;;31.92;;
44810;SDS011;30526;52.184;4.476;2022-11-12T03:58:07;61.25;;;31.92;;
44810;SDS011;30526;52.184;4.476;2022-11-12T04:00:34;61.80;;;32.03;;
44810;SDS011;30526;52.184;4.476;2022-11-12T04:03:00;64.70;;;32.15;;
44810;SDS011;30526;52.184;4.476;2022-11-12T04:05:26;65.15;;;32.95;;
44810;SDS011;30526;52.184;4.476;2022-11-12T04:08:18;70.50;;;34.15;;
44810;SDS011;30526;52.184;4.476;2022-11-12T04:11:00;62.75;;;32.10;;
44810;SDS011;30526;52.184;4.476;2022-11-12T04:13:26;66.40;;;32.58;;
44810;SDS011;30526;52.184;4.476;2022-11-12T04:15:59;66.88;;;33.30;;
44810;SDS011;30526;52.184;4.476;2022-11-12T04:18:45;66.55;;;34.13;;
44810;SDS011;30526;52.184;4.476;2022-11-12T04:21:35;61.47;;;33.13;;
44810;SDS011;30526;52.184;4.476;2022-11-12T04:24:32;68.10;;;33.13;;
44810;SDS011;30526;52.184;4.476;2022-11-12T04:27:18;69.13;;;34.55;;
44810;SDS011;30526;52.184;4.476;2022-11-12T04:32:30;65.60;;;30.95;;
44810;SDS011;30526;52.184;4.476;2022-11-12T04:34:56;49.20;;;24.33;;
44810;SDS011;30526;52.184;4.476;2022-11-12T04:37:23;63.90;;;32.08;;
44810;SDS011;30526;52.184;4.476;2022-11-12T04:39:50;63.92;;;30.95;;
44810;SDS011;30526;52.184;4.476;2022-11-12T04:42:16;63.38;;;33.20;;
44810;SDS011;30526;52.184;4.476;2022-11-12T04:45:02;63.55;;;30.38;;
44810;SDS011;30526;52.184;4.476;2022-11-12T04:49:54;64.50;;;29.35;;
44810;SDS011;30526;52.184;4.476;2022-11-12T04:52:20;59.20;;;29.02;;
44810;SDS011;30526;52.184;4.476;2022-11-12T04:54:47;65.15;;;30.70;;
44810;SDS011;30526;52.184;4.476;2022-11-12T04:57:13;64.82;;;31.30;;
44810;SDS011;30526;52.184;4.476;2022-11-12T04:59:39;73.35;;;32.65;;
44810;SDS011;30526;52.184;4.476;2022-11-12T05:02:05;75.45;;;33.22;;
44810;SDS011;30526;52.184;4.476;2022-11-12T05:04:31;65.53;;;31.95;;
44810;SDS011;30526;52.184;4.476;2022-11-12T05:06:57;68.68;;;30.77;;
44810;SDS011;30526;52.184;4.476;2022-11-12T05:09:24;53.47;;;23.92;;
44810;SDS011;30526;52.184;4.476;2022-11-12T05:14:17;51.70;;;25.30;;
44810;SDS011;30526;52.184;4.476;2022-11-12T05:16:43;44.83;;;20.20;;
44810;SDS011;30526;52.184;4.476;2022-11-12T05:19:09;64.88;;;26.45;;
44810;SDS011;30526;52.184;4.476;2022-11-12T05:21:35;57.75;;;26.35;;
44810;SDS011;30526;52.184;4.476;2022-11-12T05:24:20;68.60;;;27.73;;
44810;SDS011;30526;52.184;4.476;2022-11-12T05:26:46;65.18;;;27.30;;
44810;SDS011;30526;52.184;4.476;2022-11-12T05:29:12;63.42;;;27.95;;
44810;SDS011;30526;52.184;4.476;2022-11-12T05:31:38;62.75;;;29.65;;
44810;SDS011;30526;52.184;4.476;2022-11-12T05:34:05;70.28;;;29.98;;
44810;SDS011;30526;52.184;4.476;2022-11-12T05:36:31;72.15;;;30.05;;
44810;SDS011;30526;52.184;4.476;2022-11-12T05:38:58;70.28;;;30.00;;
44810;SDS011;30526;52.184;4.476;2022-11-12T05:41:24;65.50;;;29.38;;
44810;SDS011;30526;52.184;4.476;2022-11-12T05:43:50;67.00;;;28.80;;
44810;SDS011;30526;52.184;4.476;2022-11-12T05:46:16;70.47;;;29.27;;
44810;SDS011;30526;52.184;4.476;2022-11-12T05:48:42;61.90;;;28.15;;
44810;SDS011;30526;52.184;4.476;2022-11-12T05:51:08;63.38;;;27.40;;
44810;SDS011;30526;52.184;4.476;2022-11-12T05:53:34;59.00;;;28.15;;
44810;SDS011;30526;52.184;4.476;2022-11-12T05:56:01;62.70;;;27.60;;
44810;SDS011;30526;52.184;4.476;2022-11-12T05:58:27;55.07;;;27.53;;
44810;SDS011;30526;52.184;4.476;2022-11-12T06:00:53;56.80;;;26.27;;
44810;SDS011;30526;52.184;4.476;2022-11-12T06:03:19;51.40;;;24.65;;
44810;SDS011;30526;52.184;4.476;2022-11-12T06:05:45;53.13;;;24.25;;
44810;SDS011;30526;52.184;4.476;2022-11-12T06:08:11;47.38;;;25.45;;
44810;SDS011;30526;52.184;4.476;2022-11-12T06:10:37;52.85;;;23.95;;
44810;SDS011;30526;52.184;4.476;2022-11-12T06:13:03;47.50;;;21.73;;
44810;SDS011;30526;52.184;4.476;2022-11-12T06:15:29;47.58;;;23.08;;
44810;SDS011;30526;52.184;4.476;2022-11-12T06:17:55;59.70;;;22.63;;
44810;SDS011;30526;52.184;4.476;2022-11-12T06:20:21;47.55;;;23.55;;
44810;SDS011;30526;52.184;4.476;2022-11-12T06:22:48;52.67;;;24.33;;
44810;SDS011;30526;52.184;4.476;2022-11-12T06:25:14;57.55;;;24.80;;
44810;SDS011;30526;52.184;4.476;2022-11-12T06:27:40;53.22;;;24.20;;
44810;SDS011;30526;52.184;4.476;2022-11-12T06:30:07;52.28;;;23.65;;
44810;SDS011;30526;52.184;4.476;2022-11-12T06:32:33;36.17;;;17.33;;
44810;SDS011;30526;52.184;4.476;2022-11-12T06:34:59;46.28;;;22.13;;
44810;SDS011;30526;52.184;4.476;2022-11-12T06:37:25;44.35;;;21.30;;
44810;SDS011;30526;52.184;4.476;2022-11-12T06:39:51;50.78;;;21.90;;
44810;SDS011;30526;52.184;4.476;2022-11-12T06:42:17;44.83;;;20.63;;
44810;SDS011;30526;52.184;4.476;2022-11-12T06:44:43;42.65;;;19.58;;
44810;SDS011;30526;52.184;4.476;2022-11-12T06:47:10;39.60;;;19.27;;
44810;SDS011;30526;52.184;4.476;2022-11-12T06:49:36;41.60;;;18.60;;
44810;SDS011;30526;52.184;4.476;2022-11-12T06:52:02;37.08;;;19.13;;
44810;SDS011;30526;52.184;4.476;2022-11-12T06:54:28;32.80;;;18.00;;
44810;SDS011;30526;52.184;4.476;2022-11-12T06:56:54;39.30;;;17.80;;
44810;SDS011;30526;52.184;4.476;2022-11-12T06:59:20;37.72;;;17.20;;
44810;SDS011;30526;52.184;4.476;2022-11-12T07:01:46;33.75;;;17.45;;
44810;SDS011;30526;52.184;4.476;2022-11-12T07:04:12;34.72;;;17.65;;
44810;SDS011;30526;52.184;4.476;2022-11-12T07:06:38;35.22;;;18.02;;
44810;SDS011;30526;52.184;4.476;2022-11-12T07:09:04;39.38;;;17.67;;
44810;SDS011;30526;52.184;4.476;2022-11-12T07:11:30;31.93;;;13.63;;
44810;SDS011;30526;52.184;4.476;2022-11-12T07:13:56;33.17;;;16.60;;
44810;SDS011;30526;52.184;4.476;2022-11-12T07:16:23;43.85;;;18.90;;
44810;SDS011;30526;52.184;4.476;2022-11-12T07:18:49;32.10;;;16.75;;
44810;SDS011;30526;52.184;4.476;2022-11-12T07:21:16;31.88;;;16.67;;
44810;SDS011;30526;52.184;4.476;2022-11-12T07:23:42;23.83;;;12.20;;
44810;SDS011;30526;52.184;4.476;2022-11-12T07:26:14;24.75;;;12.15;;
44810;SDS011;30526;52.184;4.476;2022-11-12T07:28:40;34.00;;;17.17;;
44810;SDS011;30526;52.184;4.476;2022-11-12T07:31:08;23.02;;;12.68;;
44810;SDS011;30526;52.184;4.476;2022-11-12T07:33:35;33.83;;;16.50;;
44810;SDS011;30526;52.184;4.476;2022-11-12T07:36:02;27.88;;;16.15;;
44810;SDS011;30526;52.184;4.476;2022-11-12T07:38:29;39.47;;;16.70;;
44810;SDS011;30526;52.184;4.476;2022-11-12T07:41:05;23.17;;;11.40;;
44810;SDS011;30526;52.184;4.476;2022-11-12T07:43:32;23.02;;;12.52;;
44810;SDS011;30526;52.184;4.476;2022-11-12T07:45:59;31.77;;;16.23;;
44810;SDS011;30526;52.184;4.476;2022-11-12T07:48:25;20.48;;;10.90;;
44810;SDS011;30526;52.184;4.476;2022-11-12T07:50:51;26.48;;;15.15;;
44810;SDS011;30526;52.184;4.476;2022-11-12T07:53:17;33.20;;;15.65;;
44810;SDS011;30526;52.184;4.476;2022-11-12T07:55:51;27.55;;;15.50;;
44810;SDS011;30526;52.184;4.476;2022-11-12T07:58:17;22.45;;;13.05;;
44810;SDS011;30526;52.184;4.476;2022-11-12T08:00:43;21.73;;;13.60;;
44810;SDS011;30526;52.184;4.476;2022-11-12T08:03:09;21.17;;;13.02;;
44810;SDS011;30526;52.184;4.476;2022-11-12T08:05:35;19.38;;;12.85;;
44810;SDS011;30526;52.184;4.476;2022-11-12T08:08:01;21.25;;;13.10;;
44810;SDS011;30526;52.184;4.476;2022-11-12T08:10:27;22.17;;;12.70;;
44810;SDS011;30526;52.184;4.476;2022-11-12T08:12:57;21.65;;;12.65;;
44810;SDS011;30526;52.184;4.476;2022-11-12T08:15:23;22.15;;;12.20;;
44810;SDS011;30526;52.184;4.476;2022-11-12T08:17:49;20.55;;;12.80;;
44810;SDS011;30526;52.184;4.476;2022-11-12T08:20:15;22.42;;;12.65;;
44810;SDS011;30526;52.184;4.476;2022-11-12T08:22:41;24.63;;;12.90;;
44810;SDS011;30526;52.184;4.476;2022-11-12T08:25:07;16.90;;;11.52;;
44810;SDS011;30526;52.184;4.476;2022-11-12T08:27:33;19.08;;;12.52;;
44810;SDS011;30526;52.184;4.476;2022-11-12T08:30:00;12.32;;;8.68;;
44810;SDS011;30526;52.184;4.476;2022-11-12T08:32:26;18.40;;;11.02;;
44810;SDS011;30526;52.184;4.476;2022-11-12T08:34:52;20.98;;;12.07;;
44810;SDS011;30526;52.184;4.476;2022-11-12T08:37:18;20.80;;;11.55;;
44810;SDS011;30526;52.184;4.476;2022-11-12T08:39:44;15.50;;;11.40;;
44810;SDS011;30526;52.184;4.476;2022-11-12T08:42:10;16.48;;;10.98;;
44810;SDS011;30526;52.184;4.476;2022-11-12T08:44:36;16.55;;;10.82;;
44810;SDS011;30526;52.184;4.476;2022-11-12T08:47:02;19.27;;;11.32;;
44810;SDS011;30526;52.184;4.476;2022-11-12T08:49:28;15.65;;;11.15;;
44810;SDS011;30526;52.184;4.476;2022-11-12T08:51:54;17.15;;;10.70;;
44810;SDS011;30526;52.184;4.476;2022-11-12T08:54:21;15.68;;;11.07;;
44810;SDS011;30526;52.184;4.476;2022-11-12T08:56:47;16.52;;;10.25;;
44810;SDS011;30526;52.184;4.476;2022-11-12T08:59:13;16.02;;;9.82;;
44810;SDS011;30526;52.184;4.476;2022-11-12T09:01:40;17.20;;;10.70;;
44810;SDS011;30526;52.184;4.476;2022-11-12T09:04:06;21.40;;;10.43;;
44810;SDS011;30526;52.184;4.476;2022-11-12T09:06:32;15.68;;;10.13;;
44810;SDS011;30526;52.184;4.476;2022-11-12T09:08:58;12.82;;;9.18;;
44810;SDS011;30526;52.184;4.476;2022-11-12T09:11:24;17.50;;;10.10;;
44810;SDS011;30526;52.184;4.476;2022-11-12T09:13:53;14.43;;;9.30;;
44810;SDS011;30526;52.184;4.476;2022-11-12T09:16:19;15.75;;;9.95;;
44810;SDS011;30526;52.184;4.476;2022-11-12T09:18:46;13.50;;;9.52;;
44810;SDS011;30526;52.184;4.476;2022-11-12T09:21:12;15.20;;;9.55;;
44810;SDS011;30526;52.184;4.476;2022-11-12T09:23:38;15.20;;;10.07;;
44810;SDS011;30526;52.184;4.476;2022-11-12T09:26:05;16.23;;;9.23;;
44810;SDS011;30526;52.184;4.476;2022-11-12T09:28:31;15.02;;;10.00;;
44810;SDS011;30526;52.184;4.476;2022-11-12T09:30:57;15.23;;;9.98;;
44810;SDS011;30526;52.184;4.476;2022-11-12T09:33:24;13.27;;;9.48;;
44810;SDS011;30526;52.184;4.476;2022-11-12T09:35:51;17.38;;;10.27;;
44810;SDS011;30526;52.184;4.476;2022-11-12T09:38:18;9.40;;;6.57;;
44810;SDS011;30526;52.184;4.476;2022-11-12T09:40:46;11.57;;;7.60;;
44810;SDS011;30526;52.184;4.476;2022-11-12T09:43:21;15.93;;;10.27;;
44810;SDS011;30526;52.184;4.476;2022-11-12T09:45:50;19.05;;;10.75;;
44810;SDS011;30526;52.184;4.476;2022-11-12T09:48:24;12.77;;;7.55;;
44810;SDS011;30526;52.184;4.476;2022-11-12T09:50:53;15.65;;;9.82;;
44810;SDS011;30526;52.184;4.476;2022-11-12T09:53:24;17.88;;;10.13;;
44810;SDS011;30526;52.184;4.476;2022-11-12T09:55:50;16.05;;;9.77;;
44810;SDS011;30526;52.184;4.476;2022-11-12T09:58:17;15.63;;;9.75;;
44810;SDS011;30526;52.184;4.476;2022-11-12T10:00:53;14.27;;;8.20;;
44810;SDS011;30526;52.184;4.476;2022-11-12T10:06:17;13.73;;;9.43;;
44810;SDS011;30526;52.184;4.476;2022-11-12T10:16:17;16.30;;;9.32;;
44810;SDS011;30526;52.184;4.476;2022-11-12T10:24:35;13.55;;;8.50;;
44810;SDS011;30526;52.184;4.476;2022-11-12T10:27:35;12.15;;;6.45;;
44810;SDS011;30526;52.184;4.476;2022-11-12T10:30:05;14.23;;;9.27;;
44810;SDS011;30526;52.184;4.476;2022-11-12T10:32:32;15.02;;;9.02;;
44810;SDS011;30526;52.184;4.476;2022-11-12T10:34:59;14.45;;;7.00;;
44810;SDS011;30526;52.184;4.476;2022-11-12T10:37:32;16.83;;;8.52;;
44810;SDS011;30526;52.184;4.476;2022-11-12T10:42:28;11.25;;;6.00;;
44810;SDS011;30526;52.184;4.476;2022-11-12T10:44:54;13.32;;;8.20;;
44810;SDS011;30526;52.184;4.476;2022-11-12T10:47:40;13.48;;;8.15;;
44810;SDS011;30526;52.184;4.476;2022-11-12T10:52:32;15.20;;;8.15;;
44810;SDS011;30526;52.184;4.476;2022-11-12T10:55:03;14.35;;;8.30;;
44810;SDS011;30526;52.184;4.476;2022-11-12T10:57:30;13.45;;;8.30;;
44810;SDS011;30526;52.184;4.476;2022-11-12T11:00:04;12.13;;;8.00;;
44810;SDS011;30526;52.184;4.476;2022-11-12T11:02:31;13.82;;;7.65;;
44810;SDS011;30526;52.184;4.476;2022-11-12T11:04:57;12.30;;;7.40;;
44810;SDS011;30526;52.184;4.476;2022-11-12T11:07:23;14.70;;;8.00;;
44810;SDS011;30526;52.184;4.476;2022-11-12T11:09:51;7.25;;;5.47;;
44810;SDS011;30526;52.184;4.476;2022-11-12T11:12:21;7.68;;;5.43;;
44810;SDS011;30526;52.184;4.476;2022-11-12T11:14:51;12.30;;;7.60;;
44810;SDS011;30526;52.184;4.476;2022-11-12T11:17:31;12.48;;;7.78;;
44810;SDS011;30526;52.184;4.476;2022-11-12T11:19:57;12.77;;;6.78;;
44810;SDS011;30526;52.184;4.476;2022-11-12T11:22:34;11.90;;;7.00;;
44810;SDS011;30526;52.184;4.476;2022-11-12T11:25:24;8.48;;;6.15;;
44810;SDS011;30526;52.184;4.476;2022-11-12T11:30:18;11.85;;;7.10;;
44810;SDS011;30526;52.184;4.476;2022-11-12T11:37:56;10.30;;;6.70;;
44810;SDS011;30526;52.184;4.476;2022-11-12T11:40:28;7.72;;;4.40;;
44810;SDS011;30526;52.184;4.476;2022-11-12T11:48:29;6.70;;;5.00;;
44810;SDS011;30526;52.184;4.476;2022-11-12T11:53:27;9.52;;;5.53;;
44810;SDS011;30526;52.184;4.476;2022-11-12T12:11:41;8.95;;;5.00;;
44810;SDS011;30526;52.184;4.476;2022-11-12T12:19:32;9.88;;;4.78;;
44810;SDS011;30526;52.184;4.476;2022-11-12T12:21:53;7.68;;;4.50;;
44810;SDS011;30526;52.184;4.476;2022-11-12T12:25:06;7.30;;;4.32;;
44810;SDS011;30526;52.184;4.476;2022-11-12T12:29:35;5.35;;;4.03;;
44810;SDS011;30526;52.184;4.476;2022-11-12T12:34:33;6.33;;;4.37;;
44810;SDS011;30526;52.184;4.476;2022-11-12T12:37:19;6.13;;;4.05;;
44810;SDS011;30526;52.184;4.476;2022-11-12T12:39:54;5.78;;;4.13;;
44810;SDS011;30526;52.184;4.476;2022-11-12T12:44:50;3.97;;;3.53;;
44810;SDS011;30526;52.184;4.476;2022-11-12T12:47:33;4.47;;;3.83;;
44810;SDS011;30526;52.184;4.476;2022-11-12T12:49:59;4.70;;;3.40;;
44810;SDS011;30526;52.184;4.476;2022-11-12T12:52:28;4.18;;;3.67;;
44810;SDS011;30526;52.184;4.476;2022-11-12T12:54:54;5.32;;;3.40;;
44810;SDS011;30526;52.184;4.476;2022-11-12T12:57:27;4.55;;;3.63;;
44810;SDS011;30526;52.184;4.476;2022-11-12T13:00:23;9.35;;;4.20;;
44810;SDS011;30526;52.184;4.476;2022-11-12T13:02:43;6.63;;;4.35;;
44810;SDS011;30526;52.184;4.476;2022-11-12T13:07:56;6.70;;;3.67;;
44810;SDS011;30526;52.184;4.476;2022-11-12T13:13:05;5.00;;;3.03;;
44810;SDS011;30526;52.184;4.476;2022-11-12T13:15:48;5.50;;;3.03;;
44810;SDS011;30526;52.184;4.476;2022-11-12T13:21:07;4.97;;;3.53;;
44810;SDS011;30526;52.184;4.476;2022-11-12T13:23:55;8.00;;;3.78;;
44810;SDS011;30526;52.184;4.476;2022-11-12T13:29:17;3.17;;;2.88;;
44810;SDS011;30526;52.184;4.476;2022-11-12T13:31:43;4.25;;;3.20;;
44810;SDS011;30526;52.184;4.476;2022-11-12T13:34:17;4.97;;;2.58;;
44810;SDS011;30526;52.184;4.476;2022-11-12T13:36:55;3.28;;;2.50;;
44810;SDS011;30526;52.184;4.476;2022-11-12T13:39:21;3.78;;;3.08;;
44810;SDS011;30526;52.184;4.476;2022-11-12T13:41:57;4.32;;;3.17;;
44810;SDS011;30526;52.184;4.476;2022-11-12T13:44:42;4.68;;;3.28;;
44810;SDS011;30526;52.184;4.476;2022-11-12T13:47:20;5.13;;;3.40;;
44810;SDS011;30526;52.184;4.476;2022-11-12T13:49:48;4.40;;;3.38;;
44810;SDS011;30526;52.184;4.476;2022-11-12T13:52:14;4.57;;;3.38;;
44810;SDS011;30526;52.184;4.476;2022-11-12T13:54:43;4.85;;;3.72;;
44810;SDS011;30526;52.184;4.476;2022-11-12T13:57:24;4.38;;;3.70;;
44810;SDS011;30526;52.184;4.476;2022-11-12T14:02:36;5.60;;;3.83;;
44810;SDS011;30526;52.184;4.476;2022-11-12T14:05:09;4.47;;;3.65;;
44810;SDS011;30526;52.184;4.476;2022-11-12T14:10:28;4.38;;;3.70;;
44810;SDS011;30526;52.184;4.476;2022-11-12T14:15:23;6.43;;;4.15;;
44810;SDS011;30526;52.184;4.476;2022-11-12T14:17:54;6.63;;;4.40;;
44810;SDS011;30526;52.184;4.476;2022-11-12T14:20:35;5.00;;;4.38;;
44810;SDS011;30526;52.184;4.476;2022-11-12T14:23:08;4.05;;;3.65;;
44810;SDS011;30526;52.184;4.476;2022-11-12T14:25:36;5.22;;;4.32;;
44810;SDS011;30526;52.184;4.476;2022-11-12T14:30:56;7.53;;;4.00;;
44810;SDS011;30526;52.184;4.476;2022-11-12T14:33:23;4.20;;;3.53;;
44810;SDS011;30526;52.184;4.476;2022-11-12T14:36:13;5.05;;;4.00;;
44810;SDS011;30526;52.184;4.476;2022-11-12T14:38:39;6.18;;;4.13;;
44810;SDS011;30526;52.184;4.476;2022-11-12T14:41:07;5.05;;;4.28;;
44810;SDS011;30526;52.184;4.476;2022-11-12T14:43:40;5.22;;;4.40;;
44810;SDS011;30526;52.184;4.476;2022-11-12T14:46:16;6.13;;;3.92;;
44810;SDS011;30526;52.184;4.476;2022-11-12T14:48:47;7.43;;;3.78;;
44810;SDS011;30526;52.184;4.476;2022-11-12T14:51:15;7.82;;;4.15;;
44810;SDS011;30526;52.184;4.476;2022-11-12T14:53:42;4.95;;;3.75;;
44810;SDS011;30526;52.184;4.476;2022-11-12T14:56:12;5.72;;;3.90;;
44810;SDS011;30526;52.184;4.476;2022-11-12T14:58:40;6.88;;;4.55;;
44810;SDS011;30526;52.184;4.476;2022-11-12T15:01:23;7.55;;;4.82;;
44810;SDS011;30526;52.184;4.476;2022-11-12T15:03:49;7.88;;;4.63;;
44810;SDS011;30526;52.184;4.476;2022-11-12T15:06:18;6.37;;;4.50;;
44810;SDS011;30526;52.184;4.476;2022-11-12T15:08:54;5.03;;;4.47;;
44810;SDS011;30526;52.184;4.476;2022-11-12T15:13:46;7.80;;;5.25;;
44810;SDS011;30526;52.184;4.476;2022-11-12T15:21:58;9.25;;;4.85;;
44810;SDS011;30526;52.184;4.476;2022-11-12T15:24:29;10.60;;;5.63;;
44810;SDS011;30526;52.184;4.476;2022-11-12T15:26:57;10.43;;;5.05;;
44810;SDS011;30526;52.184;4.476;2022-11-12T15:37:04;9.27;;;5.05;;
44810;SDS011;30526;52.184;4.476;2022-11-12T15:39:31;9.25;;;5.60;;
44810;SDS011;30526;52.184;4.476;2022-11-12T15:41:59;8.02;;;5.70;;
44810;SDS011;30526;52.184;4.476;2022-11-12T15:44:28;7.90;;;5.90;;
44810;SDS011;30526;52.184;4.476;2022-11-12T15:46:56;10.10;;;5.32;;
44810;SDS011;30526;52.184;4.476;2022-11-12T15:49:23;8.63;;;5.70;;
44810;SDS011;30526;52.184;4.476;2022-11-12T15:51:49;10.57;;;5.78;;
44810;SDS011;30526;52.184;4.476;2022-11-12T15:54:14;12.00;;;5.80;;
44810;SDS011;30526;52.184;4.476;2022-11-12T15:56:40;12.13;;;6.10;;
44810;SDS011;30526;52.184;4.476;2022-11-12T15:59:08;8.80;;;5.70;;
44810;SDS011;30526;52.184;4.476;2022-11-12T16:01:34;10.13;;;6.45;;
44810;SDS011;30526;52.184;4.476;2022-11-12T16:04:00;9.38;;;5.85;;
44810;SDS011;30526;52.184;4.476;2022-11-12T16:06:26;10.07;;;6.35;;
44810;SDS011;30526;52.184;4.476;2022-11-12T16:08:52;11.70;;;6.72;;
44810;SDS011;30526;52.184;4.476;2022-11-12T16:11:19;10.60;;;6.70;;
44810;SDS011;30526;52.184;4.476;2022-11-12T16:14:00;10.60;;;6.03;;
44810;SDS011;30526;52.184;4.476;2022-11-12T16:16:26;9.32;;;6.32;;
44810;SDS011;30526;52.184;4.476;2022-11-12T16:18:52;10.25;;;5.93;;
44810;SDS011;30526;52.184;4.476;2022-11-12T16:21:18;13.35;;;6.97;;
44810;SDS011;30526;52.184;4.476;2022-11-12T16:23:46;14.23;;;7.22;;
44810;SDS011;30526;52.184;4.476;2022-11-12T16:28:38;7.43;;;5.38;;
44810;SDS011;30526;52.184;4.476;2022-11-12T16:31:04;12.13;;;7.53;;
44810;SDS011;30526;52.184;4.476;2022-11-12T16:33:30;15.43;;;7.23;;
44810;SDS011;30526;52.184;4.476;2022-11-12T16:35:56;12.35;;;7.63;;